sensor_id;sensor_type;location;lat;lon;timestamp;pressure;altitude;pressure_sealevel;temperature;humidity
61484;BME280;47349;55.640;37.692;2022-07-22T00:02:01;98819.69;;;16.21;82.65
61484;BME280;47349;55.640;37.692;2022-07-22T00:14:18;98802.19;;;16.12;82.67
61484;BME280;47349;55.640;37.692;2022-07-22T00:17:06;98799.47;;;16.12;82.64
61484;BME280;47349;55.640;37.692;2022-07-22T00:19:54;98816.50;;;16.12;83.29
61484;BME280;47349;55.640;37.692;2022-07-22T00:22:40;98810.88;;;16.14;82.66
61484;BME280;47349;55.640;37.692;2022-07-22T00:25:26;98805.47;;;16.14;82.84
61484;BME280;47349;55.640;37.692;2022-07-22T00:28:31;98806.28;;;16.14;82.73
61484;BME280;47349;55.640;37.692;2022-07-22T00:31:18;98807.72;;;16.17;83.08
61484;BME280;47349;55.640;37.692;2022-07-22T00:34:06;98809.84;;;16.15;83.15
61484;BME280;47349;55.640;37.692;2022-07-22T00:36:54;98814.63;;;16.13;83.10
61484;BME280;47349;55.640;37.692;2022-07-22T00:39:46;98805.81;;;16.06;83.59
61484;BME280;47349;55.640;37.692;2022-07-22T00:42:17;98813.34;;;16.15;83.19
61484;BME280;47349;55.640;37.692;2022-07-22T00:45:04;98814.06;;;16.11;83.39
61484;BME280;47349;55.640;37.692;2022-07-22T00:48:11;98804.88;;;16.12;83.38
61484;BME280;47349;55.640;37.692;2022-07-22T00:50:58;98823.47;;;16.20;82.99
61484;BME280;47349;55.640;37.692;2022-07-22T00:57:16;98807.25;;;16.20;83.10
61484;BME280;47349;55.640;37.692;2022-07-22T01:00:09;98805.25;;;16.27;83.24
61484;BME280;47349;55.640;37.692;2022-07-22T01:03:36;98809.25;;;16.25;83.03
61484;BME280;47349;55.640;37.692;2022-07-22T01:07:11;98820.06;;;16.25;83.29
61484;BME280;47349;55.640;37.692;2022-07-22T01:10:24;98811.22;;;16.29;82.86
61484;BME280;47349;55.640;37.692;2022-07-22T01:13:10;98820.41;;;16.28;82.81
61484;BME280;47349;55.640;37.692;2022-07-22T01:15:54;98817.81;;;16.33;82.63
61484;BME280;47349;55.640;37.692;2022-07-22T01:18:39;98827.94;;;16.26;83.20
61484;BME280;47349;55.640;37.692;2022-07-22T01:21:54;98826.88;;;16.27;82.83
61484;BME280;47349;55.640;37.692;2022-07-22T01:25:40;98838.28;;;16.29;82.96
61484;BME280;47349;55.640;37.692;2022-07-22T01:28:50;98836.88;;;16.27;82.75
61484;BME280;47349;55.640;37.692;2022-07-22T01:31:59;98841.22;;;16.16;83.14
61484;BME280;47349;55.640;37.692;2022-07-22T01:35:26;98832.38;;;16.09;83.53
61484;BME280;47349;55.640;37.692;2022-07-22T01:38:28;98847.88;;;16.13;83.53
61484;BME280;47349;55.640;37.692;2022-07-22T01:41:15;98849.88;;;16.06;83.64
61484;BME280;47349;55.640;37.692;2022-07-22T01:44:03;98842.34;;;16.08;83.81
61484;BME280;47349;55.640;37.692;2022-07-22T01:46:52;98848.00;;;16.07;83.76
61484;BME280;47349;55.640;37.692;2022-07-22T01:49:38;98839.06;;;16.06;84.07
61484;BME280;47349;55.640;37.692;2022-07-22T01:52:42;98842.59;;;16.18;83.36
61484;BME280;47349;55.640;37.692;2022-07-22T01:56:13;98846.00;;;16.14;83.85
61484;BME280;47349;55.640;37.692;2022-07-22T01:59:03;98830.59;;;16.14;83.90
61484;BME280;47349;55.640;37.692;2022-07-22T02:05:22;98826.97;;;16.09;83.85
61484;BME280;47349;55.640;37.692;2022-07-22T02:08:31;98824.38;;;16.14;83.81
61484;BME280;47349;55.640;37.692;2022-07-22T02:11:23;98852.47;;;16.13;84.10
61484;BME280;47349;55.640;37.692;2022-07-22T02:14:17;98837.91;;;16.14;83.91
61484;BME280;47349;55.640;37.692;2022-07-22T02:17:09;98841.34;;;16.21;83.76
61484;BME280;47349;55.640;37.692;2022-07-22T02:19:57;98859.19;;;16.22;83.43
61484;BME280;47349;55.640;37.692;2022-07-22T02:22:42;98854.59;;;16.23;83.56
61484;BME280;47349;55.640;37.692;2022-07-22T02:25:24;98858.84;;;16.18;83.65
61484;BME280;47349;55.640;37.692;2022-07-22T02:28:07;98852.97;;;16.33;83.25
61484;BME280;47349;55.640;37.692;2022-07-22T02:31:11;98856.63;;;16.39;82.60
61484;BME280;47349;55.640;37.692;2022-07-22T02:33:56;98866.28;;;16.47;82.07
61484;BME280;47349;55.640;37.692;2022-07-22T02:36:43;98856.66;;;16.51;81.82
61484;BME280;47349;55.640;37.692;2022-07-22T02:39:11;98875.25;;;16.59;81.99
61484;BME280;47349;55.640;37.692;2022-07-22T02:41:56;98877.34;;;16.57;81.66
61484;BME280;47349;55.640;37.692;2022-07-22T02:44:46;98872.06;;;16.62;81.04
61484;BME280;47349;55.640;37.692;2022-07-22T02:47:31;98875.94;;;16.66;81.04
61484;BME280;47349;55.640;37.692;2022-07-22T02:50:15;98887.72;;;16.72;80.96
61484;BME280;47349;55.640;37.692;2022-07-22T02:52:56;98887.72;;;16.60;80.70
61484;BME280;47349;55.640;37.692;2022-07-22T02:55:42;98877.25;;;16.63;80.92
61484;BME280;47349;55.640;37.692;2022-07-22T02:58:44;98888.66;;;16.65;80.85
61484;BME280;47349;55.640;37.692;2022-07-22T03:01:16;98889.72;;;16.64;80.90
61484;BME280;47349;55.640;37.692;2022-07-22T03:03:59;98898.66;;;16.65;81.10
61484;BME280;47349;55.640;37.692;2022-07-22T03:06:40;98895.34;;;16.63;81.27
61484;BME280;47349;55.640;37.692;2022-07-22T03:09:15;98898.78;;;16.70;80.85
61484;BME280;47349;55.640;37.692;2022-07-22T03:11:52;98901.06;;;16.73;80.56
61484;BME280;47349;55.640;37.692;2022-07-22T03:14:27;98896.66;;;16.72;80.62
61484;BME280;47349;55.640;37.692;2022-07-22T03:16:56;98896.78;;;16.77;80.66
61484;BME280;47349;55.640;37.692;2022-07-22T03:19:36;98893.88;;;16.79;80.54
61484;BME280;47349;55.640;37.692;2022-07-22T03:22:03;98893.16;;;16.83;80.67
61484;BME280;47349;55.640;37.692;2022-07-22T03:24:32;98912.22;;;16.88;80.49
61484;BME280;47349;55.640;37.692;2022-07-22T03:27:14;98908.44;;;16.89;80.08
61484;BME280;47349;55.640;37.692;2022-07-22T03:29:42;98920.91;;;16.90;80.34
61484;BME280;47349;55.640;37.692;2022-07-22T03:32:10;98919.28;;;16.89;79.85
61484;BME280;47349;55.640;37.692;2022-07-22T03:34:44;98905.72;;;17.01;79.53
61484;BME280;47349;55.640;37.692;2022-07-22T03:37:27;98907.72;;;17.06;78.93
61484;BME280;47349;55.640;37.692;2022-07-22T03:40:10;98920.91;;;17.14;79.02
61484;BME280;47349;55.640;37.692;2022-07-22T03:42:57;98925.88;;;17.17;78.83
61484;BME280;47349;55.640;37.692;2022-07-22T03:45:40;98931.97;;;17.24;78.45
61484;BME280;47349;55.640;37.692;2022-07-22T03:48:22;98926.91;;;17.16;78.97
61484;BME280;47349;55.640;37.692;2022-07-22T03:51:04;98938.56;;;17.28;78.53
61484;BME280;47349;55.640;37.692;2022-07-22T03:53:38;98932.78;;;17.25;78.46
61484;BME280;47349;55.640;37.692;2022-07-22T03:56:34;98934.78;;;17.29;77.85
61484;BME280;47349;55.640;37.692;2022-07-22T03:59:20;98933.00;;;17.35;77.91
61484;BME280;47349;55.640;37.692;2022-07-22T04:02:07;98924.88;;;17.35;77.71
61484;BME280;47349;55.640;37.692;2022-07-22T04:08:00;98952.44;;;17.43;77.63
61484;BME280;47349;55.640;37.692;2022-07-22T04:10:44;98953.25;;;17.44;77.97
61484;BME280;47349;55.640;37.692;2022-07-22T04:13:30;98942.31;;;17.51;77.54
61484;BME280;47349;55.640;37.692;2022-07-22T04:19:48;98946.25;;;17.60;76.23
61484;BME280;47349;55.640;37.692;2022-07-22T04:22:24;98941.34;;;17.57;76.45
61484;BME280;47349;55.640;37.692;2022-07-22T04:25:05;98950.75;;;17.66;76.05
61484;BME280;47349;55.640;37.692;2022-07-22T04:27:59;98940.13;;;17.64;75.67
61484;BME280;47349;55.640;37.692;2022-07-22T04:31:04;98950.72;;;17.78;76.54
61484;BME280;47349;55.640;37.692;2022-07-22T04:34:10;98954.00;;;17.91;75.40
61484;BME280;47349;55.640;37.692;2022-07-22T04:37:44;98938.16;;;18.00;75.37
61484;BME280;47349;55.640;37.692;2022-07-22T04:42:07;98936.28;;;18.01;73.99
61484;BME280;47349;55.640;37.692;2022-07-22T04:45:26;98906.88;;;17.81;74.05
61484;BME280;47349;55.640;37.692;2022-07-22T04:59:19;98951.25;;;18.48;72.64
61484;BME280;47349;55.640;37.692;2022-07-22T05:03:22;98982.25;;;18.53;72.10
61484;BME280;47349;55.640;37.692;2022-07-22T05:07:28;98975.66;;;18.77;70.96
61484;BME280;47349;55.640;37.692;2022-07-22T05:11:51;98976.16;;;18.91;71.55
61484;BME280;47349;55.640;37.692;2022-07-22T05:15:39;98975.41;;;18.95;70.66
61484;BME280;47349;55.640;37.692;2022-07-22T05:40:52;98985.31;;;19.40;68.26
61484;BME280;47349;55.640;37.692;2022-07-22T05:53:42;99000.34;;;19.65;69.30
61484;BME280;47349;55.640;37.692;2022-07-22T06:02:26;99009.41;;;19.54;69.13
61484;BME280;47349;55.640;37.692;2022-07-22T06:06:15;98999.66;;;19.74;68.43
61484;BME280;47349;55.640;37.692;2022-07-22T06:09:38;99003.72;;;19.94;68.90
61484;BME280;47349;55.640;37.692;2022-07-22T06:16:47;99006.94;;;20.13;68.06
61484;BME280;47349;55.640;37.692;2022-07-22T06:19:39;99000.41;;;20.14;66.70
61484;BME280;47349;55.640;37.692;2022-07-22T06:22:27;99008.34;;;19.93;67.72
61484;BME280;47349;55.640;37.692;2022-07-22T06:33:20;99002.16;;;20.25;66.93
61484;BME280;47349;55.640;37.692;2022-07-22T06:41:13;99006.13;;;20.39;65.79
61484;BME280;47349;55.640;37.692;2022-07-22T06:49:38;99002.53;;;20.56;65.19
61484;BME280;47349;55.640;37.692;2022-07-22T07:03:49;99009.78;;;20.77;64.97
61484;BME280;47349;55.640;37.692;2022-07-22T07:07:41;99016.19;;;20.93;64.10
61484;BME280;47349;55.640;37.692;2022-07-22T07:16:41;99005.09;;;20.99;63.35
61484;BME280;47349;55.640;37.692;2022-07-22T07:20:47;99003.88;;;21.22;61.81
61484;BME280;47349;55.640;37.692;2022-07-22T08:15:38;99020.25;;;22.17;57.44
61484;BME280;47349;55.640;37.692;2022-07-22T09:07:33;99056.41;;;22.45;56.32
61484;BME280;47349;55.640;37.692;2022-07-22T09:11:34;99069.56;;;22.68;55.36
